Current Weather

Linden

Linden, New Jersey (KLDJ)

Report from: Friday, February 23, 2024 3:55 PM EST
Current time: Friday, February 23, 2024 4:03 PM EST

Nearby weather – Weather history – Daily summaries
Weather forecast

Temperature8.6°C (47.5°F)
Wind chill8.0°C (46.4°F)
Dew point3.3°C (37.9°F)
Winds 3 kts (1.5 m/s, 3.5 mph) Northeast (40°)
Visibility10 mi. (16.1 km)
Clouds Scattered clouds 2,000 ft. (610 m)
Ceiling: Overcast 7,500 ft. (2,286 m)
Altimeter29.45 in.Hg (997 mB)
Relative humidity69 %
Density altitude-107 ft. (-33 m)
Remarks Fully automated report
Automated weather observing station with precipitation discriminator
Flight conditions Visual Meteorological Conditions
Raw dataKLDJ 232055Z AUTO 04003KT 10SM SCT020 OVC075 09/03 A2945 RMK AO2 T00860033
An error has occurred. This application may no longer respond until reloaded. Reload 🗙